MLBA4: Mulberry River at Mulberry, AR

                                SHEF ID:       MLBA4     Mulberry River near Mulberry. AR
STATION TYPE: Stream Gauge

PRECIP STAGE RIV-FLOW BAT-LOAD
in ft cfs volt
Ccp-Rev Ccp-Rev Ccp-Rev Ccp-Rev
(America/Chicago)
07/26 00:00 0.00 1.47 186 13.33
07/26 01:00 0.00 1.45 178 13.34
07/26 02:00 0.00 1.47 186 13.36
07/26 03:00 0.00 1.44 174 13.36
07/26 04:00 0.00 1.49 195 13.36
07/26 05:00 0.00 1.44 174 13.37
07/26 06:00 0.00 1.53 213 13.38
07/26 07:00 0.00 1.43 170 13.36
07/26 08:00 0.00 1.43 170 13.39
07/26 09:00 0.00 1.51 204 13.39
07/26 10:00 0.00 1.45 178 13.39
07/26 11:00 0.00 1.37 147 13.38
07/26 12:00 0.00 1.43 170 13.39
07/26 13:00 0.00 1.43 170 13.36
07/26 14:00 0.00 1.43 170 13.36
07/26 15:00 0.00 1.50 199 13.35
07/26 16:00 0.00 1.43 170 13.34
07/26 17:00 0.00 1.41 162 13.34
07/26 18:00 0.00 1.48 191 13.32
07/26 19:00 0.00 1.41 162 13.32
07/26 20:00 0.00 1.51 204 13.29
07/26 21:00 0.00 1.48 191 13.30
07/26 22:00 0.00 1.45 178 13.31
07/26 23:00 0.00 1.43 170 13.32
Data processed at Mon 27Jul2026 04:40 GMT

NOTICE: If you are parsing this page

Please convert to using our Data API. Starting early 2026 we will be migrating to: https://water.usace.army.mil with modern pages rendered in JavaScript. When this migration completes you will no longer be able to scrape this page! CWMSDataAPI (CDA)

Timeseries IDs (TSIDs)

TSIDs used from left to right in the data table
MULB.Precip-Inc.Total.1Hour.1Hour.Ccp-Rev
MULB.Stage.Inst.1Hour.0.Ccp-Rev
MULB.Flow.Inst.1Hour.0.Ccp-Rev
MULB.Volt-Battery Load.Inst.1Hour.0.Ccp-Rev

                            

All information presented herein is the property of the government of the United States of America and may be revised or deleted at any time without prior notice. Dissemination of this information without the expressed written consent of the Public Affairs Office, Tulsa District U.S. Army Corps of Engineers is strictly prohibited. These data are gathered electronically and, as presented, have NOT undergone any form of quality control. These data are NOT guaranteed to be valid or correct.